createdAt,value
2022-08-24T00:02:01.701Z,49.45
2022-08-24T00:04:32.033Z,49.00
2022-08-24T00:07:02.233Z,53.17
2022-08-24T00:09:32.588Z,49.83
2022-08-24T00:12:00.137Z,48.92
2022-08-24T00:14:27.451Z,48.97
2022-08-24T00:16:55.111Z,42.92
2022-08-24T00:19:22.404Z,38.08
2022-08-24T00:21:49.881Z,56.15
2022-08-24T00:24:17.410Z,53.17
2022-08-24T00:26:46.430Z,47.80
2022-08-24T00:29:15.870Z,41.60
2022-08-24T00:31:43.725Z,43.40
2022-08-24T00:34:13.203Z,39.33
2022-08-24T00:36:42.496Z,47.67
2022-08-24T00:39:11.721Z,58.25
2022-08-24T00:41:46.436Z,44.47
2022-08-24T00:44:16.665Z,43.97
2022-08-24T00:46:58.414Z,40.17
2022-08-24T00:49:44.726Z,42.78
2022-08-24T00:52:19.823Z,55.03
2022-08-24T00:54:58.686Z,53.60
2022-08-24T00:57:34.042Z,51.72
2022-08-24T01:00:16.163Z,44.47
2022-08-24T01:02:49.243Z,48.72
2022-08-24T01:05:19.406Z,38.70
2022-08-24T01:07:50.937Z,42.80
2022-08-24T01:10:27.434Z,47.00
2022-08-24T01:13:05.925Z,49.78
2022-08-24T01:15:43.021Z,30.85
2022-08-24T01:18:36.975Z,40.67
2022-08-24T01:21:36.393Z,58.72
2022-08-24T01:24:11.242Z,46.40
2022-08-24T01:26:50.358Z,54.08
2022-08-24T01:29:25.713Z,39.88
2022-08-24T01:31:54.920Z,52.20
2022-08-24T01:34:22.374Z,43.30
2022-08-24T01:36:56.202Z,53.08
2022-08-24T01:39:36.239Z,44.90
2022-08-24T01:42:04.355Z,51.63
2022-08-24T01:44:36.267Z,50.20
2022-08-24T01:47:07.811Z,50.78
2022-08-24T01:49:41.692Z,46.67
2022-08-24T01:52:14.030Z,53.70
2022-08-24T01:54:43.473Z,44.38
2022-08-24T01:57:16.323Z,42.38
2022-08-24T01:59:44.721Z,46.72
2022-08-24T02:02:25.099Z,41.20
2022-08-24T02:04:52.592Z,55.65
2022-08-24T02:07:19.961Z,61.00
2022-08-24T02:09:47.545Z,54.25
2022-08-24T02:12:15.695Z,47.85
2022-08-24T02:14:43.611Z,53.00
2022-08-24T02:17:11.376Z,53.85
2022-08-24T02:19:38.951Z,45.78
2022-08-24T02:22:06.531Z,57.92
2022-08-24T02:24:34.460Z,52.15
2022-08-24T02:27:02.541Z,50.17
2022-08-24T02:29:29.815Z,47.70
2022-08-24T02:31:57.932Z,51.03
2022-08-24T02:34:25.852Z,47.13
2022-08-24T02:36:53.803Z,51.38
2022-08-24T02:39:21.704Z,45.25
2022-08-24T02:41:49.945Z,46.47
2022-08-24T02:44:17.206Z,38.90
2022-08-24T02:46:44.817Z,47.47
2022-08-24T02:49:12.500Z,37.72
2022-08-24T02:51:46.005Z,51.78
2022-08-24T02:54:18.371Z,52.88
2022-08-24T02:56:47.354Z,46.55
2022-08-24T02:59:16.363Z,47.03
2022-08-24T03:01:44.959Z,52.85
2022-08-24T03:04:13.164Z,47.15
2022-08-24T03:06:40.995Z,37.22
2022-08-24T03:09:09.032Z,41.95
2022-08-24T03:11:37.258Z,42.55
2022-08-24T03:14:05.161Z,47.78
2022-08-24T03:16:32.559Z,55.38
2022-08-24T03:19:00.090Z,44.72
2022-08-24T03:21:28.175Z,43.08
2022-08-24T03:23:55.513Z,43.15
2022-08-24T03:26:23.213Z,40.13
2022-08-24T03:28:51.209Z,38.63
2022-08-24T03:31:19.779Z,43.78
2022-08-24T03:33:47.150Z,42.40
2022-08-24T03:36:14.782Z,57.65
2022-08-24T03:38:43.122Z,42.75
2022-08-24T03:41:10.843Z,40.15
2022-08-24T03:43:46.855Z,41.72
2022-08-24T03:46:26.183Z,36.35
2022-08-24T03:48:56.426Z,36.13
2022-08-24T03:51:28.670Z,34.33
2022-08-24T03:53:59.033Z,30.45
2022-08-24T03:56:26.696Z,35.50
2022-08-24T03:58:54.117Z,36.03
2022-08-24T04:01:22.154Z,40.25
2022-08-24T04:03:50.595Z,38.25
2022-08-24T04:06:19.948Z,34.28
2022-08-24T04:08:47.858Z,38.38
2022-08-24T04:11:21.489Z,35.03
2022-08-24T04:13:49.641Z,31.50
2022-08-24T04:16:20.530Z,28.75
2022-08-24T04:18:48.802Z,21.10
2022-08-24T04:21:23.164Z,33.08
2022-08-24T04:23:52.400Z,31.33
2022-08-24T04:26:34.131Z,39.28
2022-08-24T04:29:12.620Z,33.08
2022-08-24T04:31:42.877Z,28.48
2022-08-24T04:34:12.654Z,35.85
2022-08-24T04:36:45.118Z,32.47
2022-08-24T04:39:13.353Z,44.10
2022-08-24T04:41:42.760Z,27.67
2022-08-24T04:44:10.020Z,26.55
2022-08-24T04:46:37.687Z,43.13
2022-08-24T04:49:05.003Z,73.55
2022-08-24T04:51:36.378Z,57.83
2022-08-24T04:54:06.302Z,37.85
2022-08-24T04:56:34.133Z,40.45
2022-08-24T04:59:02.089Z,55.38
2022-08-24T05:01:32.979Z,78.00
2022-08-24T05:04:00.472Z,75.82
2022-08-24T05:06:31.460Z,49.13
2022-08-24T05:09:00.560Z,46.00
2022-08-24T05:11:28.639Z,35.17
2022-08-24T05:13:57.297Z,37.33
2022-08-24T05:16:26.677Z,35.55
2022-08-24T05:18:56.580Z,32.00
2022-08-24T05:21:25.237Z,34.15
2022-08-24T05:23:52.717Z,39.83
2022-08-24T05:26:25.998Z,35.70
2022-08-24T05:29:02.561Z,45.63
2022-08-24T05:31:33.496Z,41.42
2022-08-24T05:34:02.600Z,37.65
2022-08-24T05:36:35.730Z,39.70
2022-08-24T05:39:11.506Z,33.13
2022-08-24T05:41:44.747Z,31.77
2022-08-24T05:44:16.167Z,29.95
2022-08-24T05:46:44.547Z,27.77
2022-08-24T05:49:12.697Z,41.50
2022-08-24T05:51:42.700Z,33.90
2022-08-24T05:54:11.457Z,41.25
2022-08-24T05:56:38.703Z,42.97
2022-08-24T05:59:06.251Z,36.60
2022-08-24T06:01:33.687Z,37.20
2022-08-24T06:04:01.370Z,38.63
2022-08-24T06:06:29.181Z,31.02
2022-08-24T06:09:00.078Z,28.38
2022-08-24T06:11:37.875Z,29.83
2022-08-24T06:14:12.651Z,32.83
2022-08-24T06:16:44.306Z,30.48
2022-08-24T06:19:15.328Z,29.08
2022-08-24T06:21:44.010Z,28.58
2022-08-24T06:24:11.247Z,26.92
2022-08-24T06:26:57.566Z,31.33
2022-08-24T06:29:24.892Z,29.15
2022-08-24T06:31:54.265Z,39.03
2022-08-24T06:34:26.261Z,48.10
2022-08-24T06:36:53.989Z,36.53
2022-08-24T06:39:21.380Z,30.27
2022-08-24T06:41:48.605Z,37.90
2022-08-24T06:44:16.027Z,26.55
2022-08-24T06:46:43.239Z,32.63
2022-08-24T06:49:10.560Z,33.53
2022-08-24T06:51:38.112Z,34.13
2022-08-24T06:54:06.062Z,29.20
2022-08-24T06:56:34.166Z,32.70
2022-08-24T06:59:04.052Z,42.10
2022-08-24T07:01:32.223Z,41.10
2022-08-24T07:03:59.472Z,40.40
2022-08-24T07:06:27.206Z,41.65
2022-08-24T07:08:56.593Z,34.28
2022-08-24T07:11:25.171Z,50.67
2022-08-24T07:13:52.725Z,61.05
2022-08-24T07:16:21.516Z,48.28
2022-08-24T07:18:50.117Z,39.63
2022-08-24T07:21:21.590Z,37.50
2022-08-24T07:23:54.004Z,29.75
2022-08-24T07:26:24.131Z,38.58
2022-08-24T07:29:05.105Z,39.55
2022-08-24T07:31:35.979Z,41.08
2022-08-24T07:34:06.434Z,39.60
2022-08-24T07:36:37.410Z,41.55
2022-08-24T07:39:09.943Z,57.10
2022-08-24T07:42:02.559Z,61.30
2022-08-24T07:44:31.853Z,49.58
2022-08-24T07:47:10.357Z,40.67
2022-08-24T07:49:48.210Z,35.15
2022-08-24T07:52:15.869Z,36.75
2022-08-24T07:54:43.206Z,34.28
2022-08-24T07:57:10.518Z,45.30
2022-08-24T07:59:38.055Z,35.55
2022-08-24T08:02:05.995Z,29.08
2022-08-24T08:04:33.463Z,30.63
2022-08-24T08:07:01.820Z,24.45
2022-08-24T08:09:29.468Z,31.02
2022-08-24T08:11:56.726Z,34.33
2022-08-24T08:14:24.204Z,28.30
2022-08-24T08:16:51.822Z,24.95
2022-08-24T08:19:19.160Z,29.08
2022-08-24T08:22:11.784Z,29.38
2022-08-24T08:24:45.031Z,27.35
2022-08-24T08:27:16.436Z,25.10
2022-08-24T08:29:44.836Z,22.15
2022-08-24T08:32:17.072Z,24.55
2022-08-24T08:34:45.812Z,25.33
2022-08-24T08:37:15.343Z,25.05
2022-08-24T08:39:43.964Z,23.75
2022-08-24T08:42:47.758Z,20.95
2022-08-24T08:45:46.773Z,21.42
2022-08-24T08:48:32.448Z,31.35
2022-08-24T08:51:15.860Z,30.85
2022-08-24T08:54:29.397Z,43.00
2022-08-24T08:57:12.230Z,26.85
2022-08-24T08:59:59.879Z,28.55
2022-08-24T09:02:30.027Z,24.80
2022-08-24T09:09:02.818Z,25.40
2022-08-24T09:12:09.013Z,23.05
2022-08-24T09:15:11.440Z,22.35
2022-08-24T09:17:50.959Z,23.13
2022-08-24T09:21:07.239Z,21.08
2022-08-24T09:24:06.398Z,25.15
2022-08-24T09:27:34.938Z,20.55
2022-08-24T09:30:23.933Z,17.38
2022-08-24T09:33:28.440Z,26.35
2022-08-24T09:36:19.409Z,19.60
2022-08-24T09:39:46.535Z,25.55
2022-08-24T09:42:56.613Z,28.70
2022-08-24T09:46:10.286Z,19.90
2022-08-24T09:49:04.700Z,19.92
2022-08-24T09:51:57.574Z,24.52
2022-08-24T09:54:38.589Z,23.38
2022-08-24T09:57:27.691Z,30.17
2022-08-24T10:00:24.148Z,22.10
2022-08-24T10:02:54.114Z,26.52
2022-08-24T10:06:07.721Z,29.60
2022-08-24T10:08:54.856Z,20.05
2022-08-24T10:11:31.886Z,20.42
2022-08-24T10:14:45.582Z,18.35
2022-08-24T10:17:20.582Z,20.92
2022-08-24T10:20:12.859Z,38.92
2022-08-24T10:23:28.390Z,35.38
2022-08-24T10:26:22.056Z,21.90
2022-08-24T10:29:55.278Z,19.42
2022-08-24T10:32:53.302Z,21.77
2022-08-24T10:35:41.300Z,34.03
2022-08-24T10:39:09.653Z,42.97
2022-08-24T10:42:52.987Z,33.85
2022-08-24T10:45:53.986Z,26.20
2022-08-24T10:48:30.101Z,20.85
2022-08-24T10:51:41.434Z,19.05
2022-08-24T10:54:13.093Z,24.95
2022-08-24T10:57:01.646Z,21.58
2022-08-24T10:59:46.138Z,19.42
2022-08-24T11:02:31.803Z,20.05
2022-08-24T11:05:05.942Z,14.85
2022-08-24T11:07:34.969Z,21.45
2022-08-24T11:10:10.097Z,19.67
2022-08-24T11:12:43.108Z,24.17
2022-08-24T11:15:26.516Z,21.65
2022-08-24T11:18:04.408Z,18.25
2022-08-24T11:20:46.993Z,19.60
2022-08-24T11:23:23.031Z,43.17
2022-08-24T11:26:21.889Z,44.85
2022-08-24T11:29:01.373Z,24.65
2022-08-24T11:31:42.351Z,19.20
2022-08-24T11:34:35.446Z,16.40
2022-08-24T11:37:04.716Z,18.27
2022-08-24T11:39:37.933Z,16.50
2022-08-24T11:42:40.528Z,17.90
2022-08-24T11:45:16.142Z,16.38
2022-08-24T11:48:27.339Z,17.58
2022-08-24T11:51:08.440Z,16.52
2022-08-24T11:53:51.006Z,17.05
2022-08-24T11:56:38.455Z,18.52
2022-08-24T11:59:42.300Z,17.73
2022-08-24T12:02:31.353Z,13.55
2022-08-24T12:05:18.340Z,12.68
2022-08-24T12:08:23.660Z,20.20
2022-08-24T12:11:12.195Z,13.52
2022-08-24T12:13:48.519Z,11.98
2022-08-24T12:16:33.874Z,17.98
2022-08-24T12:19:30.021Z,15.57
2022-08-24T12:22:08.631Z,14.45
2022-08-24T12:24:46.513Z,11.70
2022-08-24T12:27:25.756Z,30.45
2022-08-24T12:30:14.892Z,25.65
2022-08-24T12:33:03.673Z,25.90
2022-08-24T12:35:54.231Z,35.58
2022-08-24T12:38:40.828Z,22.02
2022-08-24T12:41:19.886Z,17.88
2022-08-24T12:43:52.360Z,19.83
2022-08-24T12:46:26.730Z,17.70
2022-08-24T12:49:25.216Z,19.73
2022-08-24T12:52:27.439Z,14.13
2022-08-24T12:55:19.842Z,15.45
2022-08-24T13:00:58.556Z,17.50
2022-08-24T13:03:35.901Z,16.63
2022-08-24T13:06:36.138Z,24.88
2022-08-24T13:09:14.556Z,19.15
2022-08-24T13:11:42.732Z,17.17
2022-08-24T13:14:15.608Z,23.83
2022-08-24T13:16:57.923Z,13.65
2022-08-24T13:19:34.225Z,15.90
2022-08-24T13:22:33.026Z,18.38
2022-08-24T13:25:20.908Z,18.73
2022-08-24T13:28:04.971Z,14.63
2022-08-24T13:30:56.417Z,15.85
2022-08-24T13:33:53.616Z,14.85
2022-08-24T13:36:54.132Z,18.20
2022-08-24T13:39:55.100Z,16.90
2022-08-24T13:42:28.633Z,17.48
2022-08-24T13:45:34.387Z,17.27
2022-08-24T13:48:08.028Z,18.13
2022-08-24T13:50:38.066Z,16.20
2022-08-24T13:53:42.089Z,16.40
2022-08-24T13:56:24.529Z,19.88
2022-08-24T13:59:54.529Z,24.25
2022-08-24T14:02:52.175Z,20.35
2022-08-24T14:05:47.729Z,19.60
2022-08-24T14:08:55.442Z,31.13
2022-08-24T14:11:25.784Z,20.95
2022-08-24T14:14:06.334Z,19.85
2022-08-24T14:17:35.980Z,16.05
2022-08-24T14:20:14.544Z,12.75
2022-08-24T14:23:22.959Z,19.60
2022-08-24T14:25:51.815Z,16.13
2022-08-24T14:28:42.754Z,17.95
2022-08-24T14:31:29.487Z,16.00
2022-08-24T14:34:42.543Z,19.88
2022-08-24T14:37:18.507Z,24.65
2022-08-24T14:40:37.452Z,18.23
2022-08-24T14:43:53.446Z,20.73
2022-08-24T14:46:38.708Z,28.08
2022-08-24T14:49:25.784Z,16.40
2022-08-24T14:52:25.863Z,15.32
2022-08-24T14:55:02.214Z,15.82
2022-08-24T14:57:43.022Z,17.80
2022-08-24T15:00:15.833Z,15.50
2022-08-24T15:02:55.446Z,16.70
2022-08-24T15:05:32.088Z,15.00
2022-08-24T15:08:44.918Z,12.95
2022-08-24T15:11:22.634Z,16.92
2022-08-24T15:14:09.507Z,15.00
2022-08-24T15:17:08.549Z,31.20
2022-08-24T15:19:49.645Z,29.75
2022-08-24T15:22:36.531Z,23.05
2022-08-24T15:25:34.709Z,20.42
2022-08-24T15:28:26.352Z,18.98
2022-08-24T15:30:59.217Z,19.75
2022-08-24T15:33:30.185Z,17.85
2022-08-24T15:36:16.156Z,19.67
2022-08-24T15:38:44.567Z,22.70
2022-08-24T15:41:20.299Z,18.70
2022-08-24T15:44:00.358Z,25.13
2022-08-24T15:47:14.421Z,18.95
2022-08-24T15:49:57.274Z,17.67
2022-08-24T15:52:50.783Z,16.67
2022-08-24T15:55:40.985Z,12.60
2022-08-24T15:58:33.159Z,18.38
2022-08-24T16:01:43.387Z,22.42
2022-08-24T16:04:43.403Z,28.85
2022-08-24T16:07:31.232Z,22.40
2022-08-24T16:10:10.414Z,27.90
2022-08-24T16:12:38.464Z,19.35
2022-08-24T16:15:19.362Z,23.00
2022-08-24T16:17:55.801Z,22.05
2022-08-24T16:20:23.196Z,28.65
2022-08-24T16:23:00.668Z,20.75
2022-08-24T16:25:46.028Z,25.90
2022-08-24T16:28:21.545Z,28.10
2022-08-24T16:31:03.244Z,28.42
2022-08-24T16:33:46.760Z,32.70
2022-08-24T16:36:18.554Z,22.85
2022-08-24T16:38:50.757Z,18.13
2022-08-24T16:41:24.855Z,20.23
2022-08-24T16:43:52.261Z,21.38
2022-08-24T16:46:23.236Z,21.52
2022-08-24T16:48:52.191Z,24.38
2022-08-24T16:51:20.060Z,25.45
2022-08-24T16:53:47.408Z,28.63
2022-08-24T16:56:16.878Z,26.80
2022-08-24T16:58:47.625Z,23.08
2022-08-24T17:01:16.732Z,21.33
2022-08-24T17:03:44.413Z,21.08
2022-08-24T17:06:12.573Z,21.60
2022-08-24T17:08:40.919Z,23.15
2022-08-24T17:11:08.759Z,17.55
2022-08-24T17:13:51.334Z,21.65
2022-08-24T17:16:21.715Z,20.05
2022-08-24T17:18:49.063Z,17.77
2022-08-24T17:21:17.313Z,17.35
2022-08-24T17:23:45.644Z,22.38
2022-08-24T17:26:20.892Z,25.20
2022-08-24T17:28:55.480Z,21.42
2022-08-24T17:31:26.096Z,22.52
2022-08-24T17:33:53.514Z,23.20
2022-08-24T17:36:24.579Z,21.10
2022-08-24T17:38:56.031Z,22.20
2022-08-24T17:41:26.193Z,27.55
2022-08-24T17:43:54.369Z,22.65
2022-08-24T17:46:22.523Z,20.98
2022-08-24T17:48:50.584Z,25.10
2022-08-24T17:51:18.453Z,20.83
2022-08-24T17:53:45.806Z,17.77
2022-08-24T17:56:16.112Z,27.48
2022-08-24T17:59:02.924Z,26.77
2022-08-24T18:01:31.669Z,21.20
2022-08-24T18:03:58.953Z,31.50
2022-08-24T18:06:28.818Z,27.40
2022-08-24T18:09:01.055Z,25.33
2022-08-24T18:11:28.434Z,25.27
2022-08-24T18:13:55.623Z,22.77
2022-08-24T18:16:27.622Z,23.92
2022-08-24T18:18:55.998Z,17.75
2022-08-24T18:21:23.479Z,16.55
2022-08-24T18:23:51.718Z,17.83
2022-08-24T18:26:30.073Z,14.38
2022-08-24T18:29:08.883Z,13.30
2022-08-24T18:31:36.272Z,13.75
2022-08-24T18:34:07.319Z,15.23
2022-08-24T18:36:34.758Z,13.90
2022-08-24T18:39:06.888Z,11.60
2022-08-24T18:41:39.368Z,16.48
2022-08-24T18:44:13.883Z,13.57
2022-08-24T18:46:43.846Z,16.17
2022-08-24T18:49:11.396Z,12.45
2022-08-24T18:51:38.821Z,9.77
2022-08-24T18:54:14.361Z,16.75
2022-08-24T18:56:42.538Z,16.05
2022-08-24T18:59:14.710Z,14.55
2022-08-24T19:02:02.381Z,16.17
2022-08-24T19:04:33.198Z,16.92
2022-08-24T19:07:01.297Z,15.13
2022-08-24T19:09:33.484Z,11.70
2022-08-24T19:12:03.724Z,14.05
2022-08-24T19:14:31.794Z,10.40
2022-08-24T19:16:59.127Z,13.00
2022-08-24T19:19:26.717Z,16.83
2022-08-24T19:21:54.516Z,12.52
2022-08-24T19:24:26.636Z,10.85
2022-08-24T19:26:55.367Z,14.07
2022-08-24T19:29:54.452Z,12.77
2022-08-24T19:32:24.166Z,13.73
2022-08-24T19:34:54.426Z,8.98
2022-08-24T19:37:23.390Z,9.27
2022-08-24T19:39:51.199Z,10.73
2022-08-24T19:42:19.536Z,11.20
2022-08-24T19:45:05.640Z,10.88
2022-08-24T19:47:34.644Z,9.52
2022-08-24T19:50:06.741Z,12.27
2022-08-24T19:52:35.508Z,11.95
2022-08-24T19:55:05.344Z,12.55
2022-08-24T19:57:56.182Z,11.68
2022-08-24T20:00:35.911Z,9.43
2022-08-24T20:03:06.298Z,7.43
2022-08-24T20:05:36.991Z,9.50
2022-08-24T20:08:04.648Z,6.65
2022-08-24T20:10:33.397Z,6.65
2022-08-24T20:13:01.581Z,7.65
2022-08-24T20:15:29.124Z,10.00
2022-08-24T20:17:58.029Z,6.80
2022-08-24T20:20:28.384Z,9.25
2022-08-24T20:22:56.324Z,6.85
2022-08-24T20:25:23.792Z,5.40
2022-08-24T20:28:02.144Z,12.23
2022-08-24T20:30:39.324Z,7.35
2022-08-24T20:33:17.454Z,8.52
2022-08-24T20:35:45.694Z,10.07
2022-08-24T20:38:20.177Z,10.05
2022-08-24T20:40:49.253Z,7.93
2022-08-24T20:43:16.866Z,5.97
2022-08-24T20:45:45.605Z,6.35
2022-08-24T20:48:14.806Z,9.63
2022-08-24T20:50:43.629Z,6.63
2022-08-24T20:53:12.280Z,5.13
2022-08-24T20:55:41.598Z,8.00
2022-08-24T20:58:10.046Z,9.77
2022-08-24T21:00:37.984Z,11.68
2022-08-24T21:03:05.852Z,8.55
2022-08-24T21:05:33.669Z,8.60
2022-08-24T21:08:01.449Z,7.15
2022-08-24T21:10:28.820Z,6.95
2022-08-24T21:12:56.366Z,8.00
2022-08-24T21:15:23.718Z,8.15
2022-08-24T21:17:51.644Z,9.80
2022-08-24T21:20:21.008Z,8.05
2022-08-24T21:22:49.731Z,9.65
2022-08-24T21:25:17.951Z,6.22
2022-08-24T21:27:48.511Z,5.40
2022-08-24T21:30:22.864Z,16.20
2022-08-24T21:33:09.417Z,16.67
2022-08-24T21:35:37.299Z,17.15
2022-08-24T21:38:05.551Z,8.60
2022-08-24T21:40:36.402Z,10.23
2022-08-24T21:43:14.532Z,12.07
2022-08-24T21:45:47.102Z,9.98
2022-08-24T21:48:14.692Z,10.23
2022-08-24T21:50:42.818Z,14.13
2022-08-24T21:53:10.638Z,9.02
2022-08-24T21:55:41.462Z,10.32
2022-08-24T21:58:10.960Z,11.10
2022-08-24T22:00:39.150Z,9.43
2022-08-24T22:03:08.746Z,10.32
2022-08-24T22:05:36.514Z,9.80
2022-08-24T22:08:04.279Z,7.97
2022-08-24T22:10:32.294Z,9.25
2022-08-24T22:13:04.116Z,9.40
2022-08-24T22:15:33.257Z,8.43
2022-08-24T22:18:01.383Z,11.48
2022-08-24T22:20:28.896Z,9.05
2022-08-24T22:22:58.513Z,9.68
2022-08-24T22:25:26.056Z,11.90
2022-08-24T22:27:53.304Z,10.57
2022-08-24T22:30:22.326Z,6.35
2022-08-24T22:32:49.749Z,7.45
2022-08-24T22:35:17.427Z,8.32
2022-08-24T22:37:45.598Z,7.50
2022-08-24T22:40:13.166Z,11.00
2022-08-24T22:42:41.243Z,7.53
2022-08-24T22:45:10.616Z,7.53
2022-08-24T22:47:38.332Z,8.60
2022-08-24T22:50:06.784Z,9.35
2022-08-24T22:52:34.383Z,7.50
2022-08-24T22:55:01.786Z,5.95
2022-08-24T22:57:29.189Z,5.78
2022-08-24T22:59:58.148Z,9.43
2022-08-24T23:02:25.536Z,10.68
2022-08-24T23:04:54.023Z,10.45
2022-08-24T23:07:21.543Z,11.05
2022-08-24T23:09:49.670Z,11.32
2022-08-24T23:12:22.545Z,12.40
2022-08-24T23:14:53.478Z,9.75
2022-08-24T23:17:22.600Z,9.35
2022-08-24T23:20:06.521Z,9.50
2022-08-24T23:22:40.670Z,14.00
2022-08-24T23:25:12.474Z,10.27
2022-08-24T23:27:41.361Z,11.15
2022-08-24T23:30:13.553Z,10.40
2022-08-24T23:32:41.120Z,14.65
2022-08-24T23:35:09.310Z,13.48
2022-08-24T23:37:36.604Z,8.65
2022-08-24T23:40:05.606Z,6.93
2022-08-24T23:42:32.950Z,9.80
2022-08-24T23:45:00.199Z,5.55
2022-08-24T23:47:28.591Z,5.50
2022-08-24T23:49:55.872Z,5.38
2022-08-24T23:52:28.674Z,9.85
2022-08-24T23:55:07.016Z,10.60
2022-08-24T23:57:46.512Z,11.98
